Time;durP1;ratioP1;P1;durP2;ratioP2;P2;SDS_P1;SDS_P2;PMS_P1;PMS_P2;Temp;Humidity;BMP_temperature;BMP_pressure;BME280_temperature;BME280_humidity;BME280_pressure;Samples;Min_cycle;Max_cycle;Signal;HPM_P1;HPM_P2
2023/06/01 00:00:32;;;;;;;10.55;7.40;;;;;;;17.60;100.00;100147.06;5012892;28;20036;-18
2023/06/01 00:02:58;;;;;;;11.07;7.07;;;;;;;17.35;100.00;100139.69;5016436;28;20026;-19
2023/06/01 00:05:23;;;;;;;10.40;7.82;;;;;;;17.58;100.00;100153.81;5009714;28;20112;-18
2023/06/01 00:07:49;;;;;;;12.15;7.90;;;;;;;17.59;100.00;100144.63;5014862;28;20134;-18
2023/06/01 00:10:14;;;;;;;12.32;7.68;;;;;;;17.75;100.00;100153.59;5017275;28;21614;-16
2023/06/01 00:12:39;;;;;;;12.25;7.38;;;;;;;17.68;100.00;100154.66;5013369;28;20029;-18
2023/06/01 00:15:05;;;;;;;9.95;6.97;;;;;;;17.12;100.00;100154.38;5011684;28;20018;-19
2023/06/01 00:17:32;;;;;;;10.38;7.57;;;;;;;17.22;100.00;100157.13;5018691;28;20052;-22
2023/06/01 00:20:00;;;;;;;11.55;6.97;;;;;;;17.00;100.00;100159.97;5014940;28;20018;-21
2023/06/01 00:22:29;;;;;;;12.07;7.47;;;;;;;17.35;100.00;100163.13;5012435;28;20033;-19
2023/06/01 00:24:55;;;;;;;11.95;6.90;;;;;;;16.96;100.00;100158.00;5014420;28;20021;-20
2023/06/01 00:27:21;;;;;;;13.07;7.72;;;;;;;17.26;100.00;100163.63;5012429;28;20893;-19
2023/06/01 00:29:46;;;;;;;10.85;7.20;;;;;;;17.30;100.00;100163.09;5012532;28;20037;-19
2023/06/01 00:32:11;;;;;;;10.35;7.18;;;;;;;16.96;100.00;100147.25;5013391;28;20489;-19
2023/06/01 00:34:37;;;;;;;10.02;7.20;;;;;;;17.33;100.00;100159.88;5026210;28;20084;-19
2023/06/01 00:37:02;;;;;;;11.55;7.35;;;;;;;17.42;100.00;100158.31;5014425;28;20024;-21
2023/06/01 00:39:28;;;;;;;12.32;7.00;;;;;;;17.25;100.00;100156.59;5029755;28;20036;-18
2023/06/01 00:41:53;;;;;;;16.10;6.95;;;;;;;17.13;100.00;100153.28;5015516;28;20046;-18
2023/06/01 00:44:19;;;;;;;9.40;6.90;;;;;;;17.00;100.00;100153.72;5010187;28;20171;-18
2023/06/01 00:46:44;;;;;;;16.52;7.22;;;;;;;16.77;100.00;100160.28;5009640;28;20088;-20
2023/06/01 00:49:10;;;;;;;12.90;7.32;;;;;;;16.90;100.00;100157.19;5010105;28;20022;-19
2023/06/01 00:51:38;;;;;;;11.65;6.85;;;;;;;17.05;100.00;100151.88;5009522;28;20081;-20
2023/06/01 00:54:03;;;;;;;13.52;7.03;;;;;;;16.70;100.00;100155.13;5009799;28;20026;-18
2023/06/01 00:56:31;;;;;;;11.18;7.75;;;;;;;16.47;100.00;100153.59;5009647;28;20042;-18
2023/06/01 00:58:56;;;;;;;10.30;7.10;;;;;;;17.03;100.00;100161.31;5009829;28;20124;-18
2023/06/01 01:01:24;;;;;;;11.95;7.75;;;;;;;17.21;100.00;100160.09;5009534;28;20184;-19
2023/06/01 01:03:57;;;;;;;14.10;8.85;;;;;;;17.39;100.00;100161.53;5009826;28;20033;-18
2023/06/01 01:06:34;;;;;;;10.93;7.35;;;;;;;17.21;100.00;100160.88;5009318;28;20049;-18
2023/06/01 01:09:13;;;;;;;12.15;7.80;;;;;;;17.33;100.00;100162.59;5009720;28;20033;-18
2023/06/01 01:11:41;;;;;;;12.77;7.93;;;;;;;17.11;100.00;100160.81;5008980;28;20117;-19
2023/06/01 01:14:27;;;;;;;12.32;7.13;;;;;;;16.95;100.00;100159.09;5009527;28;20030;-19
2023/06/01 01:17:13;;;;;;;12.15;7.07;;;;;;;16.66;100.00;100170.16;5008978;28;20069;-19
2023/06/01 01:20:26;;;;;;;10.63;7.88;;;;;;;16.76;100.00;100170.25;5009397;28;20072;-18
2023/06/01 01:23:04;;;;;;;11.77;7.32;;;;;;;16.84;100.00;100167.09;4936388;29;20621;-19
2023/06/01 01:26:17;;;;;;;11.13;7.57;;;;;;;17.03;100.00;100169.41;4948510;29;20506;-18
2023/06/01 01:29:05;;;;;;;12.70;7.50;;;;;;;16.24;100.00;100165.44;4895141;29;20520;-18
2023/06/01 01:31:33;;;;;;;13.45;7.45;;;;;;;16.01;100.00;100159.31;4989161;28;20038;-18
2023/06/01 01:34:01;;;;;;;12.57;7.55;;;;;;;16.55;100.00;100168.44;5009330;28;20157;-18
2023/06/01 01:36:27;;;;;;;10.45;8.15;;;;;;;16.59;100.00;100169.53;5008285;28;20038;-18
2023/06/01 01:38:53;;;;;;;13.38;8.00;;;;;;;16.29;100.00;100170.91;5009168;28;20652;-18
2023/06/01 01:41:19;;;;;;;12.13;7.97;;;;;;;16.60;100.00;100176.56;5011836;28;20147;-18
2023/06/01 01:43:45;;;;;;;13.50;8.10;;;;;;;16.81;100.00;100183.75;5013468;28;20393;-18
2023/06/01 01:46:14;;;;;;;13.82;8.40;;;;;;;16.77;100.00;100177.25;5024760;28;20045;-19
2023/06/01 01:48:50;;;;;;;11.52;7.32;;;;;;;16.21;100.00;100182.13;5015320;28;20113;-18
2023/06/01 01:51:22;;;;;;;13.20;7.38;;;;;;;15.66;100.00;100165.88;4993771;28;20045;-18
2023/06/01 01:53:51;;;;;;;11.40;7.32;;;;;;;15.50;100.00;100163.25;5013456;28;20022;-18
2023/06/01 01:56:18;;;;;;;12.68;7.35;;;;;;;15.39;100.00;100170.34;5009424;28;20041;-19
2023/06/01 01:58:47;;;;;;;11.13;6.72;;;;;;;15.14;100.00;100149.31;5019666;28;20103;-18
2023/06/01 02:01:13;;;;;;;11.13;6.38;;;;;;;15.22;100.00;100179.25;5026555;28;20060;-18
2023/06/01 02:03:38;;;;;;;8.77;6.93;;;;;;;15.72;100.00;100184.75;5018561;28;20053;-18
2023/06/01 02:06:04;;;;;;;12.98;7.55;;;;;;;16.11;100.00;100179.31;5027203;28;20148;-23
2023/06/01 02:08:29;;;;;;;12.13;7.97;;;;;;;15.90;100.00;100178.28;5017313;28;20068;-18
2023/06/01 02:10:55;;;;;;;13.00;7.25;;;;;;;15.58;100.00;100182.44;5027711;28;20052;-18
2023/06/01 02:13:20;;;;;;;12.40;7.55;;;;;;;15.91;100.00;100169.94;5016601;28;20045;-18
2023/06/01 02:15:46;;;;;;;12.02;6.78;;;;;;;15.91;100.00;100180.72;5010496;28;20021;-18
2023/06/01 02:18:11;;;;;;;13.25;6.95;;;;;;;15.94;100.00;100185.59;5015983;28;20512;-18
2023/06/01 02:20:37;;;;;;;10.65;7.40;;;;;;;16.09;100.00;100181.47;5028056;28;20120;-18
2023/06/01 02:23:02;;;;;;;11.50;7.00;;;;;;;15.79;100.00;100183.53;5020391;28;20041;-18
2023/06/01 02:25:27;;;;;;;13.82;6.95;;;;;;;15.43;100.00;100176.88;5020297;28;20030;-18
2023/06/01 02:27:53;;;;;;;9.55;6.35;;;;;;;15.49;100.00;100183.94;5014644;28;20041;-18
2023/06/01 02:30:18;;;;;;;12.32;7.55;;;;;;;15.83;100.00;100191.91;5025438;28;20030;-18
2023/06/01 02:32:48;;;;;;;14.27;7.53;;;;;;;15.78;100.00;100186.47;5019467;28;20104;-18
2023/06/01 02:35:14;;;;;;;13.00;7.03;;;;;;;15.73;100.00;100176.44;5024461;28;20112;-18
2023/06/01 02:37:39;;;;;;;11.38;6.65;;;;;;;15.73;100.00;100189.09;5020471;28;20025;-18
2023/06/01 02:40:10;;;;;;;11.20;6.45;;;;;;;15.86;100.00;100194.09;5022971;28;20029;-19
2023/06/01 02:42:36;;;;;;;8.55;6.15;;;;;;;15.79;100.00;100188.09;5020525;28;20042;-18
2023/06/01 02:45:04;;;;;;;8.15;6.18;;;;;;;15.67;100.00;100186.31;5007895;28;20030;-19
2023/06/01 02:47:29;;;;;;;11.43;7.25;;;;;;;15.86;100.00;100177.97;5015859;28;20116;-18
2023/06/01 02:49:54;;;;;;;9.57;6.80;;;;;;;15.67;100.00;100185.50;5022978;28;20099;-18
2023/06/01 02:52:20;;;;;;;9.90;6.43;;;;;;;15.76;100.00;100185.91;5014923;28;20048;-18
2023/06/01 02:54:45;;;;;;;13.52;6.93;;;;;;;15.51;100.00;100187.19;5019189;28;20038;-18
2023/06/01 02:57:11;;;;;;;10.60;6.28;;;;;;;15.65;100.00;100193.81;5023334;28;20033;-18
2023/06/01 02:59:36;;;;;;;11.07;6.75;;;;;;;15.61;100.00;100179.25;4999577;28;20165;-19
2023/06/01 03:02:02;;;;;;;8.45;6.25;;;;;;;15.69;100.00;100188.75;5010053;28;20086;-19
2023/06/01 03:04:28;;;;;;;12.18;7.88;;;;;;;15.90;100.00;100194.44;5027235;28;20021;-18
2023/06/01 03:06:54;;;;;;;10.10;8.00;;;;;;;15.61;100.00;100176.56;5014760;28;20036;-19
2023/06/01 03:09:19;;;;;;;12.52;8.15;;;;;;;15.77;100.00;100190.22;5008066;28;20038;-18
2023/06/01 03:11:45;;;;;;;12.02;8.23;;;;;;;15.76;100.00;100188.59;5008300;28;20557;-18
2023/06/01 03:14:10;;;;;;;14.50;9.05;;;;;;;16.05;100.00;100200.78;5016824;28;20024;-18
2023/06/01 03:16:36;;;;;;;16.58;8.05;;;;;;;15.89;100.00;100193.59;5027224;28;20041;-18
2023/06/01 03:19:01;;;;;;;13.80;9.00;;;;;;;15.82;100.00;100188.41;5014505;28;20107;-19
2023/06/01 03:21:27;;;;;;;15.13;8.57;;;;;;;15.76;100.00;100180.53;5027096;28;20021;-18
2023/06/01 03:23:52;;;;;;;14.70;8.93;;;;;;;15.86;100.00;100194.09;5015967;28;20022;-18
2023/06/01 03:26:20;;;;;;;14.27;9.48;;;;;;;15.77;100.00;100198.28;5023507;28;20455;-19
2023/06/01 03:28:46;;;;;;;14.18;9.50;;;;;;;15.61;100.00;100191.84;5016018;28;20040;-19
2023/06/01 03:31:12;;;;;;;14.07;10.02;;;;;;;15.73;100.00;100194.47;5025301;28;20029;-18
2023/06/01 03:33:38;;;;;;;13.65;9.88;;;;;;;15.79;100.00;100190.78;5017164;28;20018;-18
2023/06/01 03:36:04;;;;;;;15.88;10.07;;;;;;;15.90;100.00;100200.63;5024440;28;20022;-18
2023/06/01 03:38:30;;;;;;;14.82;10.85;;;;;;;15.86;100.00;100205.66;5018222;28;20045;-19
2023/06/01 03:40:55;;;;;;;18.33;10.98;;;;;;;15.88;100.00;100205.44;5006570;28;20120;-19
2023/06/01 03:43:21;;;;;;;11.43;7.72;;;;;;;15.54;100.00;100197.44;5006443;28;20398;-18
2023/06/01 03:45:46;;;;;;;12.02;8.45;;;;;;;15.55;100.00;100199.06;5006836;28;20041;-18
2023/06/01 03:48:12;;;;;;;11.45;8.20;;;;;;;15.42;100.00;100194.84;5006470;28;20037;-19
2023/06/01 03:50:37;;;;;;;13.10;7.50;;;;;;;15.32;100.00;100207.31;5006699;28;20034;-18
2023/06/01 03:53:03;;;;;;;8.63;6.72;;;;;;;15.40;100.00;100210.41;5006490;28;20428;-18
2023/06/01 03:55:29;;;;;;;19.42;11.45;;;;;;;15.98;100.00;100212.81;5006681;28;20346;-18
2023/06/01 03:57:54;;;;;;;20.50;10.88;;;;;;;16.20;100.00;100215.47;5006314;28;20053;-20
2023/06/01 04:00:20;;;;;;;17.88;11.55;;;;;;;16.11;100.00;100217.00;5006669;28;20379;-19
2023/06/01 04:02:56;;;;;;;18.52;11.48;;;;;;;16.11;100.00;100215.09;5006283;28;20129;-18
2023/06/01 04:05:23;;;;;;;12.77;8.32;;;;;;;15.88;100.00;100218.88;4998181;28;20036;-18
2023/06/01 04:07:50;;;;;;;14.35;8.13;;;;;;;16.03;100.00;100216.34;5006023;28;20508;-18
2023/06/01 04:10:16;;;;;;;11.93;8.50;;;;;;;15.95;100.00;100224.88;5006529;28;20036;-19
2023/06/01 04:12:43;;;;;;;14.68;9.20;;;;;;;16.10;100.00;100223.41;5005131;28;20026;-19
2023/06/01 04:15:11;;;;;;;15.02;9.23;;;;;;;16.29;100.00;100219.34;5006430;28;20025;-18
2023/06/01 04:17:37;;;;;;;15.82;9.75;;;;;;;16.39;100.00;100213.25;5006176;28;20030;-23
2023/06/01 04:20:09;;;;;;;15.93;9.82;;;;;;;16.68;100.00;100221.88;5006104;28;20065;-23
2023/06/01 04:22:35;;;;;;;12.90;9.57;;;;;;;16.89;100.00;100222.09;5005964;28;20113;-18
2023/06/01 04:25:01;;;;;;;15.63;10.27;;;;;;;16.98;100.00;100225.91;5006661;28;20057;-18
2023/06/01 04:27:26;;;;;;;13.98;10.15;;;;;;;16.76;100.00;100221.41;5005747;28;20866;-18
2023/06/01 04:29:53;;;;;;;13.70;10.32;;;;;;;17.08;100.00;100228.72;5006365;28;20022;-18
2023/06/01 04:32:21;;;;;;;15.82;10.73;;;;;;;17.10;100.00;100229.28;5005878;28;20041;-19
2023/06/01 04:34:50;;;;;;;;;;;;;;;17.37;100.00;100229.19;5004597;28;20026;-18
2023/06/01 04:37:22;;;;;;;15.35;10.98;;;;;;;17.31;100.00;100224.03;5005901;28;19920;-18
2023/06/01 04:39:51;;;;;;;15.60;11.63;;;;;;;17.48;100.00;100227.34;5004448;28;20029;-17
2023/06/01 04:42:18;;;;;;;15.38;11.73;;;;;;;17.59;100.00;100231.75;5018933;28;20136;-21
2023/06/01 04:44:49;;;;;;;16.58;11.23;;;;;;;17.76;100.00;100236.16;5014885;28;20470;-18
2023/06/01 04:47:17;;;;;;;20.95;12.10;;;;;;;17.92;100.00;100229.78;5024565;28;20037;-19
2023/06/01 04:49:43;;;;;;;16.95;10.63;;;;;;;17.86;100.00;100233.53;5014910;28;20025;-20
2023/06/01 04:52:12;;;;;;;14.85;11.27;;;;;;;18.16;100.00;100243.59;5026152;28;20030;-19
2023/06/01 04:54:37;;;;;;;16.38;11.20;;;;;;;18.11;100.00;100242.81;5019115;28;20049;-22
2023/06/01 04:57:06;;;;;;;16.80;10.73;;;;;;;18.21;100.00;100243.63;5020590;28;20033;-19
2023/06/01 04:59:32;;;;;;;15.23;10.50;;;;;;;18.25;100.00;100243.94;5022868;28;20042;-19
2023/06/01 05:01:57;;;;;;;15.50;11.05;;;;;;;18.29;100.00;100242.31;5016847;28;20104;-19
2023/06/01 05:04:23;;;;;;;17.92;11.30;;;;;;;18.34;100.00;100245.00;5021373;28;20045;-18
2023/06/01 05:06:48;;;;;;;15.82;11.60;;;;;;;18.41;100.00;100245.59;5010830;28;20025;-21
2023/06/01 05:09:14;;;;;;;17.63;11.48;;;;;;;18.48;100.00;100254.22;5014682;28;20475;-19
2023/06/01 05:11:39;;;;;;;13.15;10.50;;;;;;;18.62;100.00;100245.63;5011300;28;20030;-21
2023/06/01 05:14:05;;;;;;;13.77;9.80;;;;;;;18.71;100.00;100251.31;5014557;28;20095;-19
2023/06/01 05:16:31;;;;;;;13.82;10.15;;;;;;;18.84;100.00;100248.13;5017290;28;20455;-20
2023/06/01 05:18:56;;;;;;;12.85;9.20;;;;;;;18.87;100.00;100251.06;5011893;28;20116;-21
2023/06/01 05:21:22;;;;;;;12.90;8.88;;;;;;;18.79;100.00;100242.69;5011190;28;20121;-18
2023/06/01 05:23:47;;;;;;;10.50;8.20;;;;;;;18.85;100.00;100253.22;5013186;28;20396;-19
2023/06/01 05:26:13;;;;;;;12.05;8.07;;;;;;;19.04;100.00;100255.41;5020198;28;20116;-18
2023/06/01 05:28:38;;;;;;;12.68;8.20;;;;;;;18.91;100.00;100247.84;5018217;28;20037;-22
2023/06/01 05:31:05;;;;;;;12.27;7.65;;;;;;;19.01;100.00;100247.84;5013254;28;20084;-23
2023/06/01 05:33:30;;;;;;;13.38;8.18;;;;;;;19.06;100.00;100256.78;5017315;28;20025;-18
2023/06/01 05:35:56;;;;;;;12.95;8.00;;;;;;;19.08;100.00;100261.88;5015361;28;20045;-19
2023/06/01 05:38:21;;;;;;;11.18;7.88;;;;;;;19.15;100.00;100262.44;5016615;28;20432;-18
2023/06/01 05:40:47;;;;;;;11.77;7.93;;;;;;;19.24;100.00;100260.00;5014138;28;20428;-19
2023/06/01 05:43:12;;;;;;;12.40;8.23;;;;;;;19.44;100.00;100261.88;5008479;28;20429;-19
2023/06/01 05:45:37;;;;;;;10.93;8.20;;;;;;;19.56;100.00;100259.69;5008323;28;20037;-22
2023/06/01 05:48:03;;;;;;;11.25;8.05;;;;;;;19.58;100.00;100265.63;5008265;28;20033;-18
2023/06/01 05:50:29;;;;;;;11.93;8.15;;;;;;;19.67;100.00;100263.16;5008340;28;20037;-20
2023/06/01 05:52:54;;;;;;;14.18;7.70;;;;;;;19.84;100.00;100254.78;5008521;28;20030;-18
2023/06/01 05:55:19;;;;;;;11.38;8.35;;;;;;;19.99;100.00;100259.31;5008527;28;20487;-18
2023/06/01 05:57:48;;;;;;;11.73;8.45;;;;;;;20.05;100.00;100259.00;5007070;28;20037;-20
2023/06/01 06:00:15;;;;;;;12.80;8.60;;;;;;;20.18;100.00;100262.22;5007567;28;20117;-18
2023/06/01 06:02:44;;;;;;;13.25;9.32;;;;;;;20.34;100.00;100250.22;5008474;28;20059;-21
2023/06/01 06:05:10;;;;;;;12.32;8.68;;;;;;;20.48;100.00;100258.53;5008342;28;20069;-21
2023/06/01 06:07:36;;;;;;;12.05;8.73;;;;;;;20.66;97.15;100267.94;5008669;28;20546;-18
2023/06/01 06:10:03;;;;;;;12.52;8.35;;;;;;;20.65;94.96;100263.59;5007970;28;20030;-19
2023/06/01 06:12:28;;;;;;;14.00;8.65;;;;;;;20.63;96.23;100268.50;5008324;28;20510;-20
2023/06/01 06:14:54;;;;;;;13.07;8.45;;;;;;;20.55;94.21;100260.91;5007502;28;20026;-19
2023/06/01 06:17:19;;;;;;;15.85;8.43;;;;;;;20.64;95.99;100253.88;5007568;28;20591;-19
2023/06/01 06:19:47;;;;;;;15.50;8.93;;;;;;;20.53;96.22;100249.56;5007924;28;20086;-19
2023/06/01 06:22:13;;;;;;;12.32;8.65;;;;;;;20.80;95.36;100252.66;5007736;28;20030;-18
2023/06/01 06:24:38;;;;;;;12.18;8.32;;;;;;;21.03;96.20;100253.03;5008012;28;20029;-19
2023/06/01 06:27:04;;;;;;;11.63;8.98;;;;;;;21.20;93.61;100256.13;5007342;28;20034;-19
2023/06/01 06:29:29;;;;;;;12.18;8.55;;;;;;;21.14;93.36;100259.97;5005416;28;20421;-19
2023/06/01 06:31:55;;;;;;;13.43;8.70;;;;;;;21.22;95.04;100253.94;5007676;28;20424;-17
2023/06/01 06:34:20;;;;;;;12.02;7.68;;;;;;;21.23;91.09;100258.28;5007648;28;20034;-18
2023/06/01 06:36:46;;;;;;;11.85;8.55;;;;;;;21.26;91.01;100257.69;5006966;28;20428;-18
2023/06/01 06:39:12;;;;;;;12.70;8.68;;;;;;;21.35;91.37;100262.50;5007054;28;20041;-24
2023/06/01 06:41:40;;;;;;;12.48;8.18;;;;;;;21.73;91.29;100265.41;5007499;28;20034;-19
2023/06/01 06:44:05;;;;;;;10.75;8.10;;;;;;;22.11;90.56;100263.59;5007085;28;20467;-18
2023/06/01 06:46:31;;;;;;;11.52;7.68;;;;;;;22.00;86.52;100246.59;5007473;28;20030;-19
2023/06/01 06:48:59;;;;;;;12.90;7.57;;;;;;;22.33;86.71;100267.69;5006456;28;20037;-21
2023/06/01 06:51:24;;;;;;;10.65;7.35;;;;;;;22.06;87.36;100250.88;5006592;28;20061;-18
2023/06/01 06:53:51;;;;;;;11.07;8.00;;;;;;;22.40;87.50;100260.78;5007428;28;20520;-18
2023/06/01 06:56:17;;;;;;;10.20;7.10;;;;;;;22.46;85.49;100256.09;5006566;28;20030;-19
2023/06/01 06:58:44;;;;;;;11.10;7.05;;;;;;;22.67;82.30;100259.31;5007391;28;20029;-18
2023/06/01 07:01:10;;;;;;;11.60;6.53;;;;;;;22.78;82.26;100266.22;5006953;28;20034;-19
2023/06/01 07:03:37;;;;;;;8.25;6.22;;;;;;;22.78;82.77;100265.41;5006697;28;20030;-18
2023/06/01 07:06:02;;;;;;;9.60;6.63;;;;;;;22.85;76.52;100254.97;5006905;28;20087;-18
2023/06/01 07:08:27;;;;;;;10.43;6.43;;;;;;;22.94;76.09;100274.13;5006976;28;20033;-18
2023/06/01 07:10:55;;;;;;;9.48;6.43;;;;;;;22.67;77.48;100264.75;5006894;28;20065;-23
2023/06/01 07:13:21;;;;;;;;;;;;;;;22.95;80.45;100264.88;5007439;28;20121;-19
2023/06/01 07:15:46;;;;;;;8.98;6.32;;;;;;;23.09;75.72;100265.75;5006913;28;20423;-19
2023/06/01 07:18:12;;;;;;;11.48;6.63;;;;;;;23.21;73.43;100266.09;5006974;28;20041;-18
2023/06/01 07:20:37;;;;;;;9.00;6.93;;;;;;;23.35;75.72;100268.03;5007365;28;20104;-18
2023/06/01 07:23:02;;;;;;;9.60;6.47;;;;;;;23.13;71.22;100250.47;5006652;28;20033;-19
2023/06/01 07:25:28;;;;;;;11.05;7.78;;;;;;;23.42;73.34;100261.09;5007423;28;20033;-18
2023/06/01 07:27:56;;;;;;;10.68;6.15;;;;;;;23.63;74.85;100266.97;5006510;28;20029;-19
2023/06/01 07:30:22;;;;;;;9.43;6.60;;;;;;;23.64;74.58;100265.88;5007217;28;20048;-19
2023/06/01 07:32:47;;;;;;;9.05;6.45;;;;;;;23.65;72.60;100267.47;5006914;28;20060;-18
2023/06/01 07:35:13;;;;;;;9.68;6.90;;;;;;;23.91;72.21;100264.28;5007286;28;20025;-18
2023/06/01 07:37:40;;;;;;;17.13;7.03;;;;;;;23.91;75.93;100260.75;5007020;28;20034;-18
2023/06/01 07:40:06;;;;;;;9.75;7.20;;;;;;;24.04;74.99;100257.22;5006859;28;20034;-19
2023/06/01 07:42:32;;;;;;;9.05;6.93;;;;;;;24.30;75.56;100248.50;5014672;28;20046;-19
2023/06/01 07:44:57;;;;;;;10.88;7.03;;;;;;;24.35;71.54;100243.72;5022432;28;20468;-18
2023/06/01 07:47:25;;;;;;;10.50;7.45;;;;;;;24.42;74.41;100251.50;5019601;28;20408;-19
2023/06/01 07:49:51;;;;;;;12.52;7.20;;;;;;;24.63;72.27;100246.41;5021302;28;20036;-18
2023/06/01 07:52:17;;;;;;;10.85;6.35;;;;;;;24.64;68.49;100248.00;5023092;28;20032;-19
2023/06/01 07:54:42;;;;;;;10.02;6.55;;;;;;;24.52;68.80;100251.28;5017806;28;20021;-19
2023/06/01 07:57:08;;;;;;;9.90;6.20;;;;;;;25.03;69.38;100246.53;5021883;28;20029;-19
2023/06/01 07:59:33;;;;;;;11.90;6.53;;;;;;;24.94;66.92;100242.94;5017367;28;20036;-18
2023/06/01 08:02:00;;;;;;;12.88;6.05;;;;;;;25.09;64.45;100247.19;5023857;28;20465;-18
2023/06/01 08:04:26;;;;;;;8.43;6.32;;;;;;;25.25;62.87;100230.16;5017249;28;20029;-18
2023/06/01 08:06:55;;;;;;;9.15;6.57;;;;;;;25.43;69.47;100241.16;5024835;28;20021;-18
2023/06/01 08:09:23;;;;;;;10.35;5.95;;;;;;;25.21;62.39;100240.09;5016334;28;20089;-18
2023/06/01 08:11:49;;;;;;;8.77;6.30;;;;;;;25.43;62.44;100239.22;5012708;28;20041;-19
2023/06/01 08:14:15;;;;;;;8.90;5.90;;;;;;;25.55;60.89;100238.63;5013724;28;20544;-22
2023/06/01 08:16:41;;;;;;;13.25;5.82;;;;;;;25.98;60.01;100239.94;5025168;28;20034;-19
2023/06/01 08:19:07;;;;;;;10.48;5.70;;;;;;;26.32;59.12;100232.91;5015370;28;20033;-19
2023/06/01 08:21:34;;;;;;;9.50;6.07;;;;;;;26.22;55.89;100240.28;5026350;28;20030;-18
2023/06/01 08:24:01;;;;;;;8.60;5.95;;;;;;;26.12;57.84;100237.06;5007213;28;20080;-18
2023/06/01 08:26:27;;;;;;;9.00;4.93;;;;;;;25.96;53.84;100214.84;5014863;28;20080;-18
2023/06/01 08:28:53;;;;;;;8.90;5.18;;;;;;;26.38;53.51;100231.63;5011906;28;20069;-18
2023/06/01 08:31:20;;;;;;;7.05;4.70;;;;;;;26.76;49.92;100229.03;5007406;28;20088;-18
2023/06/01 08:33:45;;;;;;;9.60;4.68;;;;;;;26.76;48.86;100234.53;5011760;28;20030;-20
2023/06/01 08:36:11;;;;;;;7.50;4.57;;;;;;;26.48;50.56;100219.53;5022228;28;20431;-18
2023/06/01 08:38:36;;;;;;;9.32;5.32;;;;;;;26.61;47.58;100224.09;5016602;28;20049;-19
2023/06/01 08:41:19;;;;;;;9.70;4.97;;;;;;;26.27;49.31;100225.66;5022832;28;20179;-20
2023/06/01 08:44:14;;;;;;;8.32;5.05;;;;;;;26.31;49.95;100215.69;5022838;28;20412;-19
2023/06/01 08:46:42;;;;;;;8.38;4.70;;;;;;;26.59;47.52;100207.19;5026056;28;20098;-21
2023/06/01 08:49:10;;;;;;;9.65;4.88;;;;;;;27.06;48.21;100220.97;5017183;28;20116;-19
2023/06/01 08:51:38;;;;;;;8.43;4.80;;;;;;;27.08;49.49;100205.00;5012009;28;20047;-19
2023/06/01 08:54:05;;;;;;;7.97;5.18;;;;;;;27.09;51.11;100206.59;5012405;28;20088;-19
2023/06/01 08:56:30;;;;;;;8.40;5.90;;;;;;;27.15;53.21;100201.75;5020029;28;20037;-18
2023/06/01 08:58:56;;;;;;;8.20;5.30;;;;;;;27.33;51.88;100199.81;5022406;28;20122;-19
2023/06/01 09:01:23;;;;;;;10.10;4.90;;;;;;;27.56;50.08;100209.34;5015955;28;20022;-18
2023/06/01 09:03:49;;;;;;;8.30;4.72;;;;;;;27.48;49.44;100206.66;5015236;28;20123;-19
2023/06/01 09:06:15;;;;;;;8.48;4.60;;;;;;;27.26;44.97;100200.31;5029659;28;20034;-18
2023/06/01 09:08:41;;;;;;;10.02;4.95;;;;;;;27.42;46.36;100193.16;5018053;28;20461;-19
2023/06/01 09:11:06;;;;;;;8.63;4.70;;;;;;;27.51;47.71;100201.34;5019855;28;20146;-18
2023/06/01 09:13:37;;;;;;;7.45;4.50;;;;;;;27.53;46.77;100179.09;5021317;28;20326;-19
2023/06/01 09:16:03;;;;;;;7.53;3.30;;;;;;;27.79;37.34;100203.63;5023600;28;20025;-19
2023/06/01 09:18:28;;;;;;;7.13;3.33;;;;;;;28.05;39.06;100196.06;5021207;28;20037;-21
2023/06/01 09:20:56;;;;;;;5.85;3.42;;;;;;;27.67;35.49;100198.03;5024123;28;20043;-21
2023/06/01 09:23:26;;;;;;;5.60;3.20;;;;;;;27.68;36.21;100194.16;5024740;28;20026;-19
2023/06/01 09:26:08;;;;;;;5.32;2.88;;;;;;;28.29;32.60;100191.81;5021880;28;20034;-19
2023/06/01 09:28:51;;;;;;;7.00;3.15;;;;;;;28.14;31.52;100195.19;5024351;28;20423;-19
2023/06/01 09:31:37;;;;;;;7.15;3.65;;;;;;;28.09;35.85;100187.94;5023464;28;20044;-22
2023/06/01 09:34:03;;;;;;;5.97;3.22;;;;;;;27.80;33.44;100189.56;5009874;28;20041;-19
2023/06/01 09:36:28;;;;;;;6.28;3.05;;;;;;;28.19;32.00;100182.06;5025198;28;20022;-19
2023/06/01 09:39:05;;;;;;;6.00;3.42;;;;;;;28.56;34.34;100174.03;5021709;28;20584;-18
2023/06/01 09:41:52;;;;;;;8.55;3.60;;;;;;;28.56;34.43;100173.22;5025149;28;20141;-19
2023/06/01 09:44:38;;;;;;;5.97;3.30;;;;;;;28.91;32.73;100167.38;5018709;28;20022;-22
2023/06/01 09:47:06;;;;;;;6.00;3.20;;;;;;;28.66;34.74;100178.28;4989618;28;20026;-18
2023/06/01 09:49:32;;;;;;;7.53;3.45;;;;;;;28.51;31.77;100185.22;5022947;28;20033;-18
2023/06/01 09:52:04;;;;;;;8.98;3.40;;;;;;;28.96;33.24;100180.91;5018910;28;20030;-19
2023/06/01 09:54:34;;;;;;;4.40;2.83;;;;;;;28.43;34.13;100186.06;5016055;28;20038;-18
2023/06/01 09:57:02;;;;;;;5.90;3.55;;;;;;;28.38;32.35;100184.34;4988951;28;20040;-18
2023/06/01 09:59:29;;;;;;;;;;;;;;;28.63;31.37;100184.47;5011426;28;20108;-20
2023/06/01 10:01:57;;;;;;;5.20;3.15;;;;;;;28.79;31.62;100177.19;5027882;28;19917;-19
2023/06/01 10:04:25;;;;;;;5.95;3.08;;;;;;;28.39;32.80;100172.22;5017744;28;20041;-18
2023/06/01 10:06:53;;;;;;;5.95;3.40;;;;;;;28.88;34.33;100174.34;5021343;28;20030;-19
2023/06/01 10:09:20;;;;;;;9.40;3.47;;;;;;;28.81;34.87;100169.44;5013382;28;20038;-19
2023/06/01 10:11:53;;;;;;;5.15;3.10;;;;;;;28.95;31.67;100177.34;5025963;28;20030;-19
2023/06/01 10:14:24;;;;;;;6.75;3.10;;;;;;;29.50;33.31;100166.19;5018270;28;20069;-19
2023/06/01 10:16:51;;;;;;;5.30;2.88;;;;;;;29.16;32.43;100163.56;5026684;28;20026;-19
2023/06/01 10:19:18;;;;;;;6.45;3.38;;;;;;;28.97;33.54;100160.53;5015498;28;20116;-19
2023/06/01 10:21:47;;;;;;;;;;;;;;;28.72;32.03;100159.69;5026417;28;20048;-19
2023/06/01 10:24:17;;;;;;;5.75;3.03;;;;;;;29.11;31.33;100147.31;5019338;28;19926;-19
2023/06/01 10:26:43;;;;;;;6.18;2.95;;;;;;;29.11;34.87;100147.31;5025379;28;20040;-18
2023/06/01 10:29:09;;;;;;;4.93;2.92;;;;;;;29.47;30.56;100156.72;5019519;28;20061;-18
2023/06/01 10:31:35;;;;;;;24.70;4.38;;;;;;;29.46;32.64;100149.59;5024084;28;20032;-19
2023/06/01 10:34:01;;;;;;;7.20;3.40;;;;;;;29.31;33.25;100147.56;5021209;28;20045;-19
2023/06/01 10:36:52;;;;;;;7.93;3.50;;;;;;;29.11;31.78;100149.25;5022977;28;20422;-19
2023/06/01 10:39:28;;;;;;;5.88;2.90;;;;;;;28.89;29.21;100147.69;5021060;28;20751;-20
2023/06/01 10:41:57;;;;;;;6.83;3.50;;;;;;;29.75;32.54;100139.50;5023733;28;20044;-20
2023/06/01 10:44:40;;;;;;;7.53;3.33;;;;;;;29.76;30.08;100149.38;5020374;28;20388;-19
2023/06/01 10:47:06;;;;;;;7.13;3.80;;;;;;;30.12;29.15;100137.47;5025563;28;20022;-19
2023/06/01 10:49:46;;;;;;;5.53;3.42;;;;;;;30.16;29.61;100137.56;5014737;28;20034;-18
2023/06/01 10:52:38;;;;;;;6.82;3.22;;;;;;;30.17;28.95;100141.94;5012032;28;20030;-19
2023/06/01 10:55:06;;;;;;;5.55;3.30;;;;;;;30.42;27.96;100139.91;5012375;28;20044;-19
2023/06/01 10:57:38;;;;;;;7.18;3.50;;;;;;;30.34;30.28;100138.91;5027591;28;20060;-20
2023/06/01 11:00:22;;;;;;;8.20;3.90;;;;;;;29.89;28.74;100139.94;5015211;28;20030;-19
2023/06/01 11:03:02;;;;;;;7.75;3.55;;;;;;;29.13;30.90;100120.31;5027442;28;20732;-25
2023/06/01 11:05:40;;;;;;;5.75;3.40;;;;;;;30.19;31.94;100123.91;5015091;28;20041;-19
2023/06/01 11:08:29;;;;;;;6.00;3.35;;;;;;;29.97;30.17;100119.75;5025843;28;20826;-20
2023/06/01 11:10:59;;;;;;;7.22;3.80;;;;;;;30.22;30.45;100114.19;5005209;28;20052;-19
2023/06/01 11:13:39;;;;;;;4.72;3.20;;;;;;;30.20;31.06;100113.75;4992127;28;20331;-21
2023/06/01 11:16:07;;;;;;;6.38;3.60;;;;;;;29.99;31.14;100114.69;5016250;28;20200;-19
2023/06/01 11:19:00;;;;;;;6.20;3.47;;;;;;;30.35;32.14;100098.44;5009061;28;20126;-20
2023/06/01 11:21:40;;;;;;;6.15;3.25;;;;;;;30.33;31.60;100098.00;5010255;28;20034;-21